Eglin Air Force Base
KVPS : now visible

Airfield :











YOU CAN JOIN US ON...

 
LOGIN :

Register | Disclaimer

   EN    FR    IT 

 









Legend :    VFR   Marginal VFR   IFR   Intensive IFR   Very Intensive IFR
Visi :
Ceiling :
>= 8 km
>= 3000ft
5 to 8 km
1000 to 3000 ft
1500m to 5 km
500 to 1000 ft
800 to 1500m
200 to 500 ft
< 800m
< 200 ft
Symbols :   Thunderstorms  Fog  Heavy snow  Heavy precipitations  Wind > 20 kt






- Airport Elevation : 87 ft
- IATA code : VPS


KVPS - Eglin Air Force Base

CURRENT METAR :
  • 250856Z AUTO 05005KT 10SM CLR 25/21 A2989 RMK AO2 SLP128 T02510212 55010 $

EXPIRED METARs :
  • 250756Z AUTO 06005KT 10SM BKN170 23/19 A2989 RMK AO2 SLP128 T02330188 $
  • 250656Z AUTO 01003KT 10SM FEW045 22/19 A2990 RMK AO2 SLP131 T02200190 $

TAF TAF KVPS
Valid from the 25 at 01:00 until the 26 at 07:00 UTC


250100Z 2501/2607 09006KT 9999 FEW017 SCT050 SCT100 BKN220 QNH2991INS
BECMG 2502/2503 07004KT 9999 FEW040 SCT100 BKN220 QNH2993INS WND 11009KT AFT 2514
BECMG 2519/2520 13010G18KT 9000 -SHRA VCTS SCT020CB BKN050 BKN120 QNH2989INS
TEMPO 2520/2523 16015G28KT 9000 -TSRA BKN020CB BKN035 OVC070
BECMG 2600/2601 12006KT 9999 NSW SCT018 SCT050 BKN100 BKN180 QNH2990INS
BECMG 2602/2603 06004KT 9999 FEW040 SCT180 QNH2993INS TX30/2519Z TN21/2511Z
KZJX FIR / North America



MET'MAP, your aeronautical weather chart ! - Copyright ORBIFLY December 2007 - Disclaimer

ORBIFLY MET'MAP TEAM :

Programming & Development : Alexandra Zaïnal
Concept & original design : Baudouin d'Aumeries
Assistance for programming : Marc-Olivier Méhu
Technical & hardware support : Manuel Goepfert

Contact : metmap@orbifly.com




SOURCES & CREDITS :

   NOAA       Earth
Advisory